sensor_id;sensor_type;location;lat;lon;timestamp;P1;durP1;ratioP1;P2;durP2;ratioP2
8058;SDS011;75058;42.668;23.396;2024-02-15T00:00:02;8.53;;;5.30;;
8058;SDS011;75058;42.668;23.396;2024-02-15T00:02:33;8.33;;;3.47;;
8058;SDS011;75058;42.668;23.396;2024-02-15T00:05:01;9.23;;;5.23;;
8058;SDS011;75058;42.668;23.396;2024-02-15T00:07:31;11.57;;;5.03;;
8058;SDS011;75058;42.668;23.396;2024-02-15T00:10:01;6.40;;;4.13;;
8058;SDS011;75058;42.668;23.396;2024-02-15T00:12:31;7.67;;;4.60;;
8058;SDS011;75058;42.668;23.396;2024-02-15T00:14:59;9.70;;;4.70;;
8058;SDS011;75058;42.668;23.396;2024-02-15T00:17:28;11.60;;;5.50;;
8058;SDS011;75058;42.668;23.396;2024-02-15T00:19:57;8.60;;;5.17;;
8058;SDS011;75058;42.668;23.396;2024-02-15T00:22:26;10.73;;;4.90;;
8058;SDS011;75058;42.668;23.396;2024-02-15T00:24:55;8.30;;;5.00;;
8058;SDS011;75058;42.668;23.396;2024-02-15T00:27:24;8.47;;;4.70;;
8058;SDS011;75058;42.668;23.396;2024-02-15T00:29:52;14.33;;;5.37;;
8058;SDS011;75058;42.668;23.396;2024-02-15T00:32:20;12.03;;;4.70;;
8058;SDS011;75058;42.668;23.396;2024-02-15T00:34:49;7.87;;;5.00;;
8058;SDS011;75058;42.668;23.396;2024-02-15T00:37:17;10.17;;;5.63;;
8058;SDS011;75058;42.668;23.396;2024-02-15T00:39:45;11.27;;;4.83;;
8058;SDS011;75058;42.668;23.396;2024-02-15T00:42:15;10.33;;;5.77;;
8058;SDS011;75058;42.668;23.396;2024-02-15T00:44:43;11.27;;;5.00;;
8058;SDS011;75058;42.668;23.396;2024-02-15T00:47:11;10.53;;;5.17;;
8058;SDS011;75058;42.668;23.396;2024-02-15T00:49:39;9.50;;;4.87;;
8058;SDS011;75058;42.668;23.396;2024-02-15T00:52:07;15.00;;;5.20;;
8058;SDS011;75058;42.668;23.396;2024-02-15T00:54:35;9.37;;;5.20;;
8058;SDS011;75058;42.668;23.396;2024-02-15T00:57:03;9.53;;;5.53;;
8058;SDS011;75058;42.668;23.396;2024-02-15T00:59:33;9.53;;;5.20;;
8058;SDS011;75058;42.668;23.396;2024-02-15T01:02:02;8.53;;;4.40;;
8058;SDS011;75058;42.668;23.396;2024-02-15T01:04:31;8.83;;;4.67;;
8058;SDS011;75058;42.668;23.396;2024-02-15T01:06:59;9.50;;;4.63;;
8058;SDS011;75058;42.668;23.396;2024-02-15T01:09:27;8.87;;;4.50;;
8058;SDS011;75058;42.668;23.396;2024-02-15T01:11:55;11.13;;;5.27;;
8058;SDS011;75058;42.668;23.396;2024-02-15T01:14:23;8.90;;;4.87;;
8058;SDS011;75058;42.668;23.396;2024-02-15T01:16:57;9.37;;;5.00;;
8058;SDS011;75058;42.668;23.396;2024-02-15T01:19:25;9.07;;;4.73;;
8058;SDS011;75058;42.668;23.396;2024-02-15T01:21:54;7.70;;;4.67;;
8058;SDS011;75058;42.668;23.396;2024-02-15T01:24:22;9.13;;;4.73;;
8058;SDS011;75058;42.668;23.396;2024-02-15T01:26:52;10.60;;;5.47;;
8058;SDS011;75058;42.668;23.396;2024-02-15T01:29:21;11.17;;;4.50;;
8058;SDS011;75058;42.668;23.396;2024-02-15T01:31:49;8.13;;;4.53;;
8058;SDS011;75058;42.668;23.396;2024-02-15T01:34:18;9.73;;;5.50;;
8058;SDS011;75058;42.668;23.396;2024-02-15T01:36:48;9.90;;;4.80;;
8058;SDS011;75058;42.668;23.396;2024-02-15T01:39:16;7.47;;;4.47;;
8058;SDS011;75058;42.668;23.396;2024-02-15T01:41:47;9.80;;;5.60;;
8058;SDS011;75058;42.668;23.396;2024-02-15T01:44:17;6.90;;;3.10;;
8058;SDS011;75058;42.668;23.396;2024-02-15T01:46:47;10.87;;;5.53;;
8058;SDS011;75058;42.668;23.396;2024-02-15T01:49:16;11.43;;;5.50;;
8058;SDS011;75058;42.668;23.396;2024-02-15T01:51:46;8.80;;;5.07;;
8058;SDS011;75058;42.668;23.396;2024-02-15T01:54:14;8.40;;;5.20;;
8058;SDS011;75058;42.668;23.396;2024-02-15T01:56:43;10.53;;;5.13;;
8058;SDS011;75058;42.668;23.396;2024-02-15T01:59:13;8.60;;;4.77;;
8058;SDS011;75058;42.668;23.396;2024-02-15T02:01:43;12.70;;;6.73;;
8058;SDS011;75058;42.668;23.396;2024-02-15T02:04:12;10.30;;;5.03;;
8058;SDS011;75058;42.668;23.396;2024-02-15T02:06:40;10.63;;;4.40;;
8058;SDS011;75058;42.668;23.396;2024-02-15T02:09:11;10.57;;;3.87;;
8058;SDS011;75058;42.668;23.396;2024-02-15T02:11:40;8.93;;;5.40;;
8058;SDS011;75058;42.668;23.396;2024-02-15T02:14:09;11.30;;;5.97;;
8058;SDS011;75058;42.668;23.396;2024-02-15T02:16:38;8.53;;;5.03;;
8058;SDS011;75058;42.668;23.396;2024-02-15T02:19:06;11.10;;;5.57;;
8058;SDS011;75058;42.668;23.396;2024-02-15T02:21:36;12.07;;;5.13;;
8058;SDS011;75058;42.668;23.396;2024-02-15T02:24:07;9.10;;;5.50;;
8058;SDS011;75058;42.668;23.396;2024-02-15T02:26:41;8.27;;;4.93;;
8058;SDS011;75058;42.668;23.396;2024-02-15T02:29:10;9.97;;;5.37;;
8058;SDS011;75058;42.668;23.396;2024-02-15T02:31:38;11.97;;;5.53;;
8058;SDS011;75058;42.668;23.396;2024-02-15T02:34:07;8.57;;;5.13;;
8058;SDS011;75058;42.668;23.396;2024-02-15T02:36:37;8.90;;;4.67;;
8058;SDS011;75058;42.668;23.396;2024-02-15T02:39:07;10.97;;;5.83;;
8058;SDS011;75058;42.668;23.396;2024-02-15T02:41:35;10.90;;;5.28;;
8058;SDS011;75058;42.668;23.396;2024-02-15T02:44:05;10.27;;;5.47;;
8058;SDS011;75058;42.668;23.396;2024-02-15T02:46:33;10.57;;;6.07;;
8058;SDS011;75058;42.668;23.396;2024-02-15T02:49:01;10.50;;;6.03;;
8058;SDS011;75058;42.668;23.396;2024-02-15T02:51:29;12.50;;;5.93;;
8058;SDS011;75058;42.668;23.396;2024-02-15T02:53:57;10.27;;;5.13;;
8058;SDS011;75058;42.668;23.396;2024-02-15T02:56:26;12.37;;;4.50;;
8058;SDS011;75058;42.668;23.396;2024-02-15T02:58:54;12.63;;;6.07;;
8058;SDS011;75058;42.668;23.396;2024-02-15T03:01:23;12.13;;;6.23;;
8058;SDS011;75058;42.668;23.396;2024-02-15T03:03:52;11.10;;;5.40;;
8058;SDS011;75058;42.668;23.396;2024-02-15T03:06:22;12.60;;;5.43;;
8058;SDS011;75058;42.668;23.396;2024-02-15T03:08:51;13.90;;;6.97;;
8058;SDS011;75058;42.668;23.396;2024-02-15T03:11:20;9.97;;;5.40;;
8058;SDS011;75058;42.668;23.396;2024-02-15T03:13:49;10.73;;;5.50;;
8058;SDS011;75058;42.668;23.396;2024-02-15T03:16:17;10.07;;;5.57;;
8058;SDS011;75058;42.668;23.396;2024-02-15T03:18:46;9.37;;;5.80;;
8058;SDS011;75058;42.668;23.396;2024-02-15T03:21:15;11.43;;;6.87;;
8058;SDS011;75058;42.668;23.396;2024-02-15T03:23:44;13.00;;;6.13;;
8058;SDS011;75058;42.668;23.396;2024-02-15T03:26:12;12.03;;;5.90;;
8058;SDS011;75058;42.668;23.396;2024-02-15T03:28:40;12.53;;;5.07;;
8058;SDS011;75058;42.668;23.396;2024-02-15T03:31:08;11.30;;;6.23;;
8058;SDS011;75058;42.668;23.396;2024-02-15T03:33:36;11.00;;;5.47;;
8058;SDS011;75058;42.668;23.396;2024-02-15T03:36:07;9.53;;;4.13;;
8058;SDS011;75058;42.668;23.396;2024-02-15T03:38:36;10.43;;;6.27;;
8058;SDS011;75058;42.668;23.396;2024-02-15T03:41:04;12.20;;;6.30;;
8058;SDS011;75058;42.668;23.396;2024-02-15T03:43:32;12.47;;;6.47;;
8058;SDS011;75058;42.668;23.396;2024-02-15T03:46:00;10.77;;;6.23;;
8058;SDS011;75058;42.668;23.396;2024-02-15T03:48:28;15.33;;;6.53;;
8058;SDS011;75058;42.668;23.396;2024-02-15T03:50:57;13.30;;;6.37;;
8058;SDS011;75058;42.668;23.396;2024-02-15T03:53:27;14.63;;;5.63;;
8058;SDS011;75058;42.668;23.396;2024-02-15T03:55:56;9.97;;;5.43;;
8058;SDS011;75058;42.668;23.396;2024-02-15T03:58:24;12.90;;;6.17;;
8058;SDS011;75058;42.668;23.396;2024-02-15T04:00:52;13.20;;;6.57;;
8058;SDS011;75058;42.668;23.396;2024-02-15T04:03:22;13.20;;;7.07;;
8058;SDS011;75058;42.668;23.396;2024-02-15T04:05:50;11.67;;;5.83;;
8058;SDS011;75058;42.668;23.396;2024-02-15T04:08:19;16.97;;;7.03;;
8058;SDS011;75058;42.668;23.396;2024-02-15T04:10:48;9.13;;;5.00;;
8058;SDS011;75058;42.668;23.396;2024-02-15T04:13:19;10.00;;;5.73;;
8058;SDS011;75058;42.668;23.396;2024-02-15T04:15:47;13.20;;;6.37;;
8058;SDS011;75058;42.668;23.396;2024-02-15T04:18:17;20.63;;;6.73;;
8058;SDS011;75058;42.668;23.396;2024-02-15T04:20:45;15.30;;;5.87;;
8058;SDS011;75058;42.668;23.396;2024-02-15T04:23:15;15.57;;;6.43;;
8058;SDS011;75058;42.668;23.396;2024-02-15T04:25:43;14.63;;;6.37;;
8058;SDS011;75058;42.668;23.396;2024-02-15T04:28:18;11.80;;;5.90;;
8058;SDS011;75058;42.668;23.396;2024-02-15T04:30:46;14.43;;;6.67;;
8058;SDS011;75058;42.668;23.396;2024-02-15T04:33:15;13.77;;;6.73;;
8058;SDS011;75058;42.668;23.396;2024-02-15T04:35:43;16.67;;;6.73;;
8058;SDS011;75058;42.668;23.396;2024-02-15T04:38:11;12.60;;;4.93;;
8058;SDS011;75058;42.668;23.396;2024-02-15T04:40:39;11.40;;;5.73;;
8058;SDS011;75058;42.668;23.396;2024-02-15T04:43:08;13.37;;;6.30;;
8058;SDS011;75058;42.668;23.396;2024-02-15T04:45:37;11.57;;;6.00;;
8058;SDS011;75058;42.668;23.396;2024-02-15T04:48:05;13.10;;;6.40;;
8058;SDS011;75058;42.668;23.396;2024-02-15T04:50:34;18.07;;;6.27;;
8058;SDS011;75058;42.668;23.396;2024-02-15T04:53:03;13.40;;;5.50;;
8058;SDS011;75058;42.668;23.396;2024-02-15T04:55:32;13.50;;;4.97;;
8058;SDS011;75058;42.668;23.396;2024-02-15T04:58:02;15.97;;;5.90;;
8058;SDS011;75058;42.668;23.396;2024-02-15T05:00:31;11.70;;;5.80;;
8058;SDS011;75058;42.668;23.396;2024-02-15T05:03:00;10.47;;;4.93;;
8058;SDS011;75058;42.668;23.396;2024-02-15T05:05:28;12.80;;;6.70;;
8058;SDS011;75058;42.668;23.396;2024-02-15T05:07:56;12.40;;;6.23;;
8058;SDS011;75058;42.668;23.396;2024-02-15T05:10:25;15.93;;;6.23;;
8058;SDS011;75058;42.668;23.396;2024-02-15T05:12:53;12.10;;;6.47;;
8058;SDS011;75058;42.668;23.396;2024-02-15T05:15:22;13.30;;;6.93;;
8058;SDS011;75058;42.668;23.396;2024-02-15T05:17:51;12.97;;;6.53;;
8058;SDS011;75058;42.668;23.396;2024-02-15T05:20:22;14.17;;;6.97;;
8058;SDS011;75058;42.668;23.396;2024-02-15T05:22:53;9.63;;;5.20;;
8058;SDS011;75058;42.668;23.396;2024-02-15T05:25:21;13.50;;;7.47;;
8058;SDS011;75058;42.668;23.396;2024-02-15T05:27:52;15.30;;;7.03;;
8058;SDS011;75058;42.668;23.396;2024-02-15T05:30:23;16.50;;;6.97;;
8058;SDS011;75058;42.668;23.396;2024-02-15T05:32:51;16.03;;;7.33;;
8058;SDS011;75058;42.668;23.396;2024-02-15T05:35:22;18.13;;;7.30;;
8058;SDS011;75058;42.668;23.396;2024-02-15T05:37:51;13.60;;;7.47;;
8058;SDS011;75058;42.668;23.396;2024-02-15T05:40:20;12.37;;;6.73;;
8058;SDS011;75058;42.668;23.396;2024-02-15T05:42:48;11.67;;;6.10;;
8058;SDS011;75058;42.668;23.396;2024-02-15T05:45:28;15.90;;;7.07;;
8058;SDS011;75058;42.668;23.396;2024-02-15T05:47:59;14.37;;;6.33;;
8058;SDS011;75058;42.668;23.396;2024-02-15T05:50:29;9.73;;;5.37;;
8058;SDS011;75058;42.668;23.396;2024-02-15T05:52:58;20.30;;;7.00;;
8058;SDS011;75058;42.668;23.396;2024-02-15T05:55:28;13.97;;;6.50;;
8058;SDS011;75058;42.668;23.396;2024-02-15T05:58:00;15.30;;;7.47;;
8058;SDS011;75058;42.668;23.396;2024-02-15T06:00:28;12.83;;;6.07;;
8058;SDS011;75058;42.668;23.396;2024-02-15T06:02:57;16.95;;;7.90;;
8058;SDS011;75058;42.668;23.396;2024-02-15T06:05:26;14.67;;;6.83;;
8058;SDS011;75058;42.668;23.396;2024-02-15T06:07:55;15.70;;;6.10;;
8058;SDS011;75058;42.668;23.396;2024-02-15T06:10:24;15.23;;;6.33;;
8058;SDS011;75058;42.668;23.396;2024-02-15T06:12:52;11.30;;;5.27;;
8058;SDS011;75058;42.668;23.396;2024-02-15T06:15:21;11.40;;;6.10;;
8058;SDS011;75058;42.668;23.396;2024-02-15T06:17:50;16.90;;;6.87;;
8058;SDS011;75058;42.668;23.396;2024-02-15T06:20:18;10.90;;;5.30;;
8058;SDS011;75058;42.668;23.396;2024-02-15T06:22:47;11.53;;;5.97;;
8058;SDS011;75058;42.668;23.396;2024-02-15T06:25:17;15.13;;;7.10;;
8058;SDS011;75058;42.668;23.396;2024-02-15T06:27:48;12.50;;;5.63;;
8058;SDS011;75058;42.668;23.396;2024-02-15T06:30:25;17.50;;;6.87;;
8058;SDS011;75058;42.668;23.396;2024-02-15T06:33:10;15.67;;;6.93;;
8058;SDS011;75058;42.668;23.396;2024-02-15T06:35:56;14.57;;;7.25;;
8058;SDS011;75058;42.668;23.396;2024-02-15T06:38:41;12.90;;;6.13;;
8058;SDS011;75058;42.668;23.396;2024-02-15T06:41:28;16.97;;;6.57;;
8058;SDS011;75058;42.668;23.396;2024-02-15T06:43:56;12.03;;;6.30;;
8058;SDS011;75058;42.668;23.396;2024-02-15T06:46:24;12.93;;;6.43;;
8058;SDS011;75058;42.668;23.396;2024-02-15T06:48:52;16.77;;;6.87;;
8058;SDS011;75058;42.668;23.396;2024-02-15T06:51:21;12.43;;;6.50;;
8058;SDS011;75058;42.668;23.396;2024-02-15T06:53:51;16.00;;;7.07;;
8058;SDS011;75058;42.668;23.396;2024-02-15T06:56:22;15.53;;;6.40;;
8058;SDS011;75058;42.668;23.396;2024-02-15T06:58:52;8.70;;;5.10;;
8058;SDS011;75058;42.668;23.396;2024-02-15T07:01:23;13.17;;;6.53;;
8058;SDS011;75058;42.668;23.396;2024-02-15T07:03:51;13.73;;;5.93;;
8058;SDS011;75058;42.668;23.396;2024-02-15T07:06:24;20.80;;;7.37;;
8058;SDS011;75058;42.668;23.396;2024-02-15T07:08:54;11.17;;;3.70;;
8058;SDS011;75058;42.668;23.396;2024-02-15T07:11:23;14.50;;;5.93;;
8058;SDS011;75058;42.668;23.396;2024-02-15T07:13:53;13.23;;;7.03;;
8058;SDS011;75058;42.668;23.396;2024-02-15T07:16:21;19.73;;;6.73;;
8058;SDS011;75058;42.668;23.396;2024-02-15T07:18:49;12.70;;;4.97;;
8058;SDS011;75058;42.668;23.396;2024-02-15T07:21:19;16.43;;;7.10;;
8058;SDS011;75058;42.668;23.396;2024-02-15T07:23:52;11.60;;;6.30;;
8058;SDS011;75058;42.668;23.396;2024-02-15T07:26:21;15.77;;;6.73;;
8058;SDS011;75058;42.668;23.396;2024-02-15T07:28:52;11.70;;;5.90;;
8058;SDS011;75058;42.668;23.396;2024-02-15T07:31:21;13.00;;;5.80;;
8058;SDS011;75058;42.668;23.396;2024-02-15T07:33:49;22.03;;;7.30;;
8058;SDS011;75058;42.668;23.396;2024-02-15T07:36:19;17.43;;;6.90;;
8058;SDS011;75058;42.668;23.396;2024-02-15T07:38:48;13.40;;;5.57;;
8058;SDS011;75058;42.668;23.396;2024-02-15T07:41:16;10.77;;;5.73;;
8058;SDS011;75058;42.668;23.396;2024-02-15T07:43:46;19.10;;;7.40;;
8058;SDS011;75058;42.668;23.396;2024-02-15T07:46:15;12.40;;;6.17;;
8058;SDS011;75058;42.668;23.396;2024-02-15T07:48:44;16.87;;;8.03;;
8058;SDS011;75058;42.668;23.396;2024-02-15T07:53:44;11.38;;;5.95;;
8058;SDS011;75058;42.668;23.396;2024-02-15T07:56:13;14.57;;;7.68;;
8058;SDS011;75058;42.668;23.396;2024-02-15T07:58:42;12.13;;;6.83;;
8058;SDS011;75058;42.668;23.396;2024-02-15T08:01:19;17.77;;;7.82;;
8058;SDS011;75058;42.668;23.396;2024-02-15T08:03:50;27.92;;;12.65;;
8058;SDS011;75058;42.668;23.396;2024-02-15T08:06:21;12.50;;;6.47;;
8058;SDS011;75058;42.668;23.396;2024-02-15T08:08:52;12.93;;;6.13;;
8058;SDS011;75058;42.668;23.396;2024-02-15T08:11:20;13.85;;;7.22;;
8058;SDS011;75058;42.668;23.396;2024-02-15T08:13:50;13.93;;;6.03;;
8058;SDS011;75058;42.668;23.396;2024-02-15T08:16:22;25.15;;;11.43;;
8058;SDS011;75058;42.668;23.396;2024-02-15T08:18:50;28.65;;;12.27;;
8058;SDS011;75058;42.668;23.396;2024-02-15T08:21:24;14.85;;;6.40;;
8058;SDS011;75058;42.668;23.396;2024-02-15T08:23:54;14.02;;;6.95;;
8058;SDS011;75058;42.668;23.396;2024-02-15T08:26:22;10.93;;;5.68;;
8058;SDS011;75058;42.668;23.396;2024-02-15T08:28:50;12.65;;;5.97;;
8058;SDS011;75058;42.668;23.396;2024-02-15T08:31:20;14.15;;;6.57;;
8058;SDS011;75058;42.668;23.396;2024-02-15T08:33:50;12.38;;;6.55;;
8058;SDS011;75058;42.668;23.396;2024-02-15T08:36:19;12.57;;;5.80;;
8058;SDS011;75058;42.668;23.396;2024-02-15T08:38:49;16.45;;;6.90;;
8058;SDS011;75058;42.668;23.396;2024-02-15T08:41:17;12.18;;;5.75;;
8058;SDS011;75058;42.668;23.396;2024-02-15T08:43:47;16.02;;;6.75;;
8058;SDS011;75058;42.668;23.396;2024-02-15T08:46:16;12.02;;;6.72;;
8058;SDS011;75058;42.668;23.396;2024-02-15T08:48:44;13.52;;;6.63;;
8058;SDS011;75058;42.668;23.396;2024-02-15T08:51:14;13.52;;;6.40;;
8058;SDS011;75058;42.668;23.396;2024-02-15T08:53:43;11.27;;;4.45;;
8058;SDS011;75058;42.668;23.396;2024-02-15T08:56:11;11.00;;;5.35;;
8058;SDS011;75058;42.668;23.396;2024-02-15T08:58:40;15.45;;;6.38;;
8058;SDS011;75058;42.668;23.396;2024-02-15T09:01:09;15.05;;;6.10;;
8058;SDS011;75058;42.668;23.396;2024-02-15T09:03:40;13.15;;;5.80;;
8058;SDS011;75058;42.668;23.396;2024-02-15T09:06:08;7.63;;;4.63;;
8058;SDS011;75058;42.668;23.396;2024-02-15T09:08:38;18.70;;;6.45;;
8058;SDS011;75058;42.668;23.396;2024-02-15T09:11:06;12.60;;;6.00;;
8058;SDS011;75058;42.668;23.396;2024-02-15T09:13:38;10.75;;;6.25;;
8058;SDS011;75058;42.668;23.396;2024-02-15T09:16:06;12.90;;;6.18;;
8058;SDS011;75058;42.668;23.396;2024-02-15T09:18:34;15.98;;;6.50;;
8058;SDS011;75058;42.668;23.396;2024-02-15T09:21:04;12.07;;;6.80;;
8058;SDS011;75058;42.668;23.396;2024-02-15T09:23:32;13.40;;;5.95;;
8058;SDS011;75058;42.668;23.396;2024-02-15T09:26:02;19.08;;;6.28;;
8058;SDS011;75058;42.668;23.396;2024-02-15T09:28:30;10.95;;;5.25;;
8058;SDS011;75058;42.668;23.396;2024-02-15T09:30:58;9.93;;;4.93;;
8058;SDS011;75058;42.668;23.396;2024-02-15T09:33:28;9.45;;;5.07;;
8058;SDS011;75058;42.668;23.396;2024-02-15T09:35:56;9.45;;;4.57;;
8058;SDS011;75058;42.668;23.396;2024-02-15T09:38:24;12.50;;;5.45;;
8058;SDS011;75058;42.668;23.396;2024-02-15T09:40:52;12.80;;;5.78;;
8058;SDS011;75058;42.668;23.396;2024-02-15T09:43:23;15.40;;;6.15;;
8058;SDS011;75058;42.668;23.396;2024-02-15T09:45:52;14.98;;;7.53;;
8058;SDS011;75058;42.668;23.396;2024-02-15T09:48:22;14.25;;;5.55;;
8058;SDS011;75058;42.668;23.396;2024-02-15T09:50:53;6.97;;;4.13;;
8058;SDS011;75058;42.668;23.396;2024-02-15T09:53:22;13.05;;;5.78;;
8058;SDS011;75058;42.668;23.396;2024-02-15T09:55:53;13.48;;;5.75;;
8058;SDS011;75058;42.668;23.396;2024-02-15T09:58:22;11.30;;;5.07;;
8058;SDS011;75058;42.668;23.396;2024-02-15T10:00:50;12.38;;;5.55;;
8058;SDS011;75058;42.668;23.396;2024-02-15T10:03:18;10.10;;;5.20;;
8058;SDS011;75058;42.668;23.396;2024-02-15T10:05:48;4.47;;;2.53;;
8058;SDS011;75058;42.668;23.396;2024-02-15T10:08:18;14.63;;;5.50;;
8058;SDS011;75058;42.668;23.396;2024-02-15T10:10:48;12.27;;;5.75;;
8058;SDS011;75058;42.668;23.396;2024-02-15T10:13:34;15.18;;;5.40;;
8058;SDS011;75058;42.668;23.396;2024-02-15T10:18:51;12.63;;;5.68;;
8058;SDS011;75058;42.668;23.396;2024-02-15T10:21:23;13.23;;;4.45;;
8058;SDS011;75058;42.668;23.396;2024-02-15T10:24:03;15.52;;;5.95;;
8058;SDS011;75058;42.668;23.396;2024-02-15T10:26:33;7.57;;;3.80;;
8058;SDS011;75058;42.668;23.396;2024-02-15T10:29:06;18.50;;;6.88;;
8058;SDS011;75058;42.668;23.396;2024-02-15T10:31:37;11.85;;;6.28;;
8058;SDS011;75058;42.668;23.396;2024-02-15T10:34:07;9.38;;;4.55;;
8058;SDS011;75058;42.668;23.396;2024-02-15T10:36:35;13.15;;;5.82;;
8058;SDS011;75058;42.668;23.396;2024-02-15T10:39:13;7.45;;;4.50;;
8058;SDS011;75058;42.668;23.396;2024-02-15T10:41:44;9.10;;;4.72;;
8058;SDS011;75058;42.668;23.396;2024-02-15T10:44:16;7.95;;;4.75;;
8058;SDS011;75058;42.668;23.396;2024-02-15T10:46:46;10.98;;;4.65;;
8058;SDS011;75058;42.668;23.396;2024-02-15T10:49:18;12.77;;;5.03;;
8058;SDS011;75058;42.668;23.396;2024-02-15T10:51:49;9.65;;;4.22;;
8058;SDS011;75058;42.668;23.396;2024-02-15T10:54:24;8.32;;;4.10;;
8058;SDS011;75058;42.668;23.396;2024-02-15T10:57:05;7.75;;;3.92;;
8058;SDS011;75058;42.668;23.396;2024-02-15T10:59:36;16.85;;;5.43;;
8058;SDS011;75058;42.668;23.396;2024-02-15T11:02:15;8.45;;;4.68;;
8058;SDS011;75058;42.668;23.396;2024-02-15T11:04:57;9.85;;;5.00;;
8058;SDS011;75058;42.668;23.396;2024-02-15T11:07:30;10.88;;;5.32;;
8058;SDS011;75058;42.668;23.396;2024-02-15T11:09:59;8.27;;;4.25;;
8058;SDS011;75058;42.668;23.396;2024-02-15T11:12:28;8.48;;;4.68;;
8058;SDS011;75058;42.668;23.396;2024-02-15T11:14:58;8.77;;;4.43;;
8058;SDS011;75058;42.668;23.396;2024-02-15T11:17:46;9.13;;;4.50;;
8058;SDS011;75058;42.668;23.396;2024-02-15T11:20:45;9.25;;;4.53;;
8058;SDS011;75058;42.668;23.396;2024-02-15T11:23:25;13.18;;;5.65;;
8058;SDS011;75058;42.668;23.396;2024-02-15T11:26:03;10.82;;;4.07;;
8058;SDS011;75058;42.668;23.396;2024-02-15T11:28:43;7.22;;;3.95;;
8058;SDS011;75058;42.668;23.396;2024-02-15T11:34:42;11.48;;;4.95;;
8058;SDS011;75058;42.668;23.396;2024-02-15T11:40:20;5.63;;;3.28;;
8058;SDS011;75058;42.668;23.396;2024-02-15T11:42:51;5.40;;;3.28;;
8058;SDS011;75058;42.668;23.396;2024-02-15T11:45:20;12.40;;;4.13;;
8058;SDS011;75058;42.668;23.396;2024-02-15T11:47:50;9.63;;;5.50;;
8058;SDS011;75058;42.668;23.396;2024-02-15T11:50:20;4.20;;;2.47;;
8058;SDS011;75058;42.668;23.396;2024-02-15T11:52:50;10.68;;;4.55;;
8058;SDS011;75058;42.668;23.396;2024-02-15T11:55:20;10.75;;;4.68;;
8058;SDS011;75058;42.668;23.396;2024-02-15T11:57:55;11.43;;;4.97;;
8058;SDS011;75058;42.668;23.396;2024-02-15T12:00:29;7.97;;;3.83;;
8058;SDS011;75058;42.668;23.396;2024-02-15T12:03:17;6.10;;;3.55;;
8058;SDS011;75058;42.668;23.396;2024-02-15T12:06:03;14.82;;;4.88;;
8058;SDS011;75058;42.668;23.396;2024-02-15T12:08:50;12.93;;;5.15;;
8058;SDS011;75058;42.668;23.396;2024-02-15T12:11:37;7.88;;;3.63;;
8058;SDS011;75058;42.668;23.396;2024-02-15T12:14:22;9.30;;;5.00;;
8058;SDS011;75058;42.668;23.396;2024-02-15T12:17:09;8.40;;;4.47;;
8058;SDS011;75058;42.668;23.396;2024-02-15T12:19:59;10.40;;;4.97;;
8058;SDS011;75058;42.668;23.396;2024-02-15T12:22:33;8.43;;;4.03;;
8058;SDS011;75058;42.668;23.396;2024-02-15T12:25:07;6.97;;;4.05;;
8058;SDS011;75058;42.668;23.396;2024-02-15T12:27:39;9.55;;;4.10;;
8058;SDS011;75058;42.668;23.396;2024-02-15T12:30:12;6.70;;;3.00;;
8058;SDS011;75058;42.668;23.396;2024-02-15T12:32:42;6.85;;;3.50;;
8058;SDS011;75058;42.668;23.396;2024-02-15T12:35:12;7.95;;;4.53;;
8058;SDS011;75058;42.668;23.396;2024-02-15T12:37:43;10.82;;;4.20;;
8058;SDS011;75058;42.668;23.396;2024-02-15T12:40:12;6.80;;;3.92;;
8058;SDS011;75058;42.668;23.396;2024-02-15T12:42:42;11.00;;;4.95;;
8058;SDS011;75058;42.668;23.396;2024-02-15T12:45:17;7.03;;;2.97;;
8058;SDS011;75058;42.668;23.396;2024-02-15T12:47:48;4.18;;;2.88;;
8058;SDS011;75058;42.668;23.396;2024-02-15T12:50:19;8.63;;;3.75;;
8058;SDS011;75058;42.668;23.396;2024-02-15T12:52:48;7.43;;;3.03;;
8058;SDS011;75058;42.668;23.396;2024-02-15T12:55:18;3.75;;;2.75;;
8058;SDS011;75058;42.668;23.396;2024-02-15T12:57:48;6.90;;;4.30;;
8058;SDS011;75058;42.668;23.396;2024-02-15T13:00:21;10.30;;;4.63;;
8058;SDS011;75058;42.668;23.396;2024-02-15T13:02:55;9.02;;;4.45;;
8058;SDS011;75058;42.668;23.396;2024-02-15T13:05:26;8.88;;;4.43;;
8058;SDS011;75058;42.668;23.396;2024-02-15T13:07:55;8.38;;;3.90;;
8058;SDS011;75058;42.668;23.396;2024-02-15T13:10:24;10.35;;;3.85;;
8058;SDS011;75058;42.668;23.396;2024-02-15T13:12:52;10.02;;;3.92;;
8058;SDS011;75058;42.668;23.396;2024-02-15T13:15:22;5.88;;;3.70;;
8058;SDS011;75058;42.668;23.396;2024-02-15T13:17:54;5.47;;;2.58;;
8058;SDS011;75058;42.668;23.396;2024-02-15T13:20:22;3.83;;;2.38;;
8058;SDS011;75058;42.668;23.396;2024-02-15T13:23:00;4.72;;;3.10;;
8058;SDS011;75058;42.668;23.396;2024-02-15T13:25:35;7.53;;;4.22;;
8058;SDS011;75058;42.668;23.396;2024-02-15T13:28:08;8.13;;;4.40;;
8058;SDS011;75058;42.668;23.396;2024-02-15T13:30:36;8.95;;;4.03;;
8058;SDS011;75058;42.668;23.396;2024-02-15T13:33:05;8.93;;;4.45;;
8058;SDS011;75058;42.668;23.396;2024-02-15T13:35:33;2.97;;;2.00;;
8058;SDS011;75058;42.668;23.396;2024-02-15T13:38:04;4.97;;;2.55;;
8058;SDS011;75058;42.668;23.396;2024-02-15T13:40:35;6.85;;;3.13;;
8058;SDS011;75058;42.668;23.396;2024-02-15T13:43:03;4.55;;;2.15;;
8058;SDS011;75058;42.668;23.396;2024-02-15T13:45:32;6.38;;;3.13;;
8058;SDS011;75058;42.668;23.396;2024-02-15T13:48:08;5.50;;;2.70;;
8058;SDS011;75058;42.668;23.396;2024-02-15T13:50:37;3.33;;;1.90;;
8058;SDS011;75058;42.668;23.396;2024-02-15T13:53:09;5.72;;;3.28;;
8058;SDS011;75058;42.668;23.396;2024-02-15T13:55:37;10.30;;;2.65;;
8058;SDS011;75058;42.668;23.396;2024-02-15T13:58:06;5.32;;;2.85;;
8058;SDS011;75058;42.668;23.396;2024-02-15T14:00:39;7.22;;;3.63;;
8058;SDS011;75058;42.668;23.396;2024-02-15T14:03:10;8.93;;;3.50;;
8058;SDS011;75058;42.668;23.396;2024-02-15T14:05:38;9.43;;;3.00;;
8058;SDS011;75058;42.668;23.396;2024-02-15T14:08:10;7.60;;;2.45;;
8058;SDS011;75058;42.668;23.396;2024-02-15T14:10:38;8.55;;;3.53;;
8058;SDS011;75058;42.668;23.396;2024-02-15T14:13:06;5.68;;;3.58;;
8058;SDS011;75058;42.668;23.396;2024-02-15T14:15:36;6.45;;;3.67;;
8058;SDS011;75058;42.668;23.396;2024-02-15T14:18:06;6.65;;;3.72;;
8058;SDS011;75058;42.668;23.396;2024-02-15T14:20:37;7.18;;;2.67;;
8058;SDS011;75058;42.668;23.396;2024-02-15T14:23:08;12.70;;;4.05;;
8058;SDS011;75058;42.668;23.396;2024-02-15T14:25:42;7.72;;;3.97;;
8058;SDS011;75058;42.668;23.396;2024-02-15T14:28:12;10.80;;;3.70;;
8058;SDS011;75058;42.668;23.396;2024-02-15T14:30:42;8.27;;;3.80;;
8058;SDS011;75058;42.668;23.396;2024-02-15T14:33:28;9.13;;;4.10;;
8058;SDS011;75058;42.668;23.396;2024-02-15T14:35:59;5.35;;;2.70;;
8058;SDS011;75058;42.668;23.396;2024-02-15T14:38:28;4.15;;;2.75;;
8058;SDS011;75058;42.668;23.396;2024-02-15T14:40:57;7.30;;;3.35;;
8058;SDS011;75058;42.668;23.396;2024-02-15T14:43:27;5.10;;;2.83;;
8058;SDS011;75058;42.668;23.396;2024-02-15T14:45:55;7.07;;;3.53;;
8058;SDS011;75058;42.668;23.396;2024-02-15T14:48:24;7.45;;;3.45;;
8058;SDS011;75058;42.668;23.396;2024-02-15T14:50:53;12.25;;;3.92;;
8058;SDS011;75058;42.668;23.396;2024-02-15T14:53:23;6.20;;;3.35;;
8058;SDS011;75058;42.668;23.396;2024-02-15T14:55:51;6.78;;;4.05;;
8058;SDS011;75058;42.668;23.396;2024-02-15T14:58:21;5.68;;;3.88;;
8058;SDS011;75058;42.668;23.396;2024-02-15T15:00:49;8.68;;;4.20;;
8058;SDS011;75058;42.668;23.396;2024-02-15T15:03:26;11.02;;;4.28;;
8058;SDS011;75058;42.668;23.396;2024-02-15T15:05:58;11.20;;;4.05;;
8058;SDS011;75058;42.668;23.396;2024-02-15T15:08:44;10.30;;;4.20;;